Time;durP1;ratioP1;P1;durP2;ratioP2;P2;SDS_P1;SDS_P2;PMS_P1;PMS_P2;Temp;Humidity;BMP_temperature;BMP_pressure;BME280_temperature;BME280_humidity;BME280_pressure;Samples;Min_cycle;Max_cycle;Signal;HPM_P1;HPM_P2
2021/09/14 00:02:11;;;;;;;;;24.00;24.00;;;;;21.02;45.93;100806.31;146603;593;47916;-76
2021/09/14 00:04:44;;;;;;;;;29.50;28.50;;;;;20.98;46.12;100799.25;146607;587;46010;-76
2021/09/14 00:07:18;;;;;;;;;27.75;26.50;;;;;20.98;45.79;100796.63;146606;599;46017;-76
2021/09/14 00:09:52;;;;;;;;;33.75;26.75;;;;;20.97;45.96;100789.59;146605;575;46020;-78
2021/09/14 00:12:26;;;;;;;;;30.25;27.00;;;;;20.96;46.55;100801.84;146605;624;46016;-77
2021/09/14 00:15:00;;;;;;;;;32.00;29.00;;;;;20.91;46.79;100794.78;146606;564;46913;-76
2021/09/14 00:17:34;;;;;;;;;29.50;26.75;;;;;20.89;46.87;100800.03;146605;580;47012;-77
2021/09/14 00:20:09;;;;;;;;;29.75;28.00;;;;;20.85;46.86;100800.88;146607;660;46020;-77
2021/09/14 00:22:43;;;;;;;;;26.50;24.00;;;;;20.81;46.89;100803.44;146602;635;46016;-77
2021/09/14 00:25:17;;;;;;;;;32.00;30.25;;;;;20.73;46.61;100795.47;146605;586;46020;-83
2021/09/14 00:27:51;;;;;;;;;27.75;26.00;;;;;20.70;47.13;100798.09;146605;601;46016;-82
2021/09/14 00:30:25;;;;;;;;;25.25;24.25;;;;;20.56;47.42;100774.22;146608;607;46020;-86
2021/09/14 00:32:59;;;;;;;;;30.50;27.25;;;;;20.55;46.57;100769.81;146606;592;45914;-85
2021/09/14 00:35:36;;;;;;;;;33.75;29.25;;;;;20.46;46.92;100759.13;146604;586;46021;-87
2021/09/14 00:38:11;;;;;;;;;31.25;26.50;;;;;20.62;47.60;100791.84;146603;679;47914;-87
2021/09/14 00:40:45;;;;;;;;;30.50;28.25;;;;;20.52;47.19;100777.69;146606;588;47010;-86
2021/09/14 00:43:29;;;;;;;;;27.75;24.50;;;;;20.40;46.93;100765.22;146602;671;46017;-86
2021/09/14 00:48:57;;;;;;;;;29.50;27.00;;;;;20.39;47.89;100765.19;146598;593;47016;-86
2021/09/14 00:51:31;;;;;;;;;28.00;27.00;;;;;20.51;47.83;100796.94;146604;593;46021;-88
2021/09/14 00:54:05;;;;;;;;;28.75;27.75;;;;;20.49;47.82;100796.03;146602;700;47913;-86
2021/09/14 00:56:41;;;;;;;;;29.75;26.75;;;;;20.44;47.97;100800.41;146606;633;46020;-86
2021/09/14 00:59:15;;;;;;;;;27.75;24.00;;;;;20.40;47.17;100794.19;146603;581;46017;-88
2021/09/14 01:01:49;;;;;;;;;29.75;26.00;;;;;20.40;47.50;100799.44;146606;726;46020;-89
2021/09/14 01:04:26;;;;;;;;;28.75;26.00;;;;;20.26;46.86;100774.72;146604;576;46016;-88
2021/09/14 01:07:01;;;;;;;;;31.25;26.50;;;;;20.28;47.28;100775.63;146605;581;47010;-86
2021/09/14 01:09:37;;;;;;;;;26.00;25.25;;;;;20.40;47.72;100799.44;146604;633;46012;-89
2021/09/14 01:12:13;;;;;;;;;28.50;26.50;;;;;20.37;47.55;100802.03;146607;692;46020;-77
2021/09/14 01:14:55;;;;;;;;;28.25;26.25;;;;;20.34;47.77;100803.75;146603;569;47012;-80
2021/09/14 01:17:29;;;;;;;;;33.00;27.50;;;;;20.30;48.29;100801.06;146604;601;46020;-80
2021/09/14 01:20:03;;;;;;;;;33.50;30.25;;;;;20.26;48.08;100791.38;146605;574;47012;-82
2021/09/14 01:22:38;;;;;;;;;28.00;26.50;;;;;20.24;48.58;100792.22;146606;589;47010;-77
2021/09/14 01:25:21;;;;;;;;;27.75;26.00;;;;;20.18;47.77;100794.78;146605;575;46024;-81
2021/09/14 01:27:59;;;;;;;;;27.25;24.50;;;;;20.12;48.47;100790.31;146605;665;46914;-77
2021/09/14 01:30:33;;;;;;;;;30.25;27.00;;;;;20.10;48.20;100799.06;146606;657;46016;-77
2021/09/14 01:33:16;;;;;;;;;23.75;23.50;;;;;20.05;48.00;100797.25;146601;605;47020;-78
2021/09/14 01:35:50;;;;;;;;;28.00;27.00;;;;;20.03;48.34;100809.50;146604;611;46916;-78
2021/09/14 01:42:04;;;;;;;;;28.75;26.50;;;;;19.98;49.27;100797.16;146606;773;46013;-78
2021/09/14 01:44:38;;;;;;;;;31.75;27.75;;;;;19.96;48.60;100805.00;146606;641;46032;-79
2021/09/14 01:47:12;;;;;;;;;29.00;28.00;;;;;19.78;48.55;100770.53;146606;586;46012;-79
2021/09/14 01:49:46;;;;;;;;;28.75;26.50;;;;;19.94;48.37;100797.97;146604;595;46021;-79
2021/09/14 01:52:20;;;;;;;;;31.25;28.25;;;;;19.96;48.36;100793.59;146602;571;46016;-79
2021/09/14 01:54:54;;;;;;;;;32.75;29.50;;;;;20.00;48.61;100792.78;146608;612;46020;-80
2021/09/14 01:57:31;;;;;;;;;29.50;26.75;;;;;20.03;48.27;100796.34;146604;566;46016;-79
2021/09/14 02:00:09;;;;;;;;;30.75;28.00;;;;;20.12;47.54;100798.19;146606;639;46010;-79
2021/09/14 02:03:02;;;;;;;;;31.25;28.25;;;;;20.19;47.94;100797.44;146605;651;46012;-79
2021/09/14 02:08:53;;;;;;;;;27.75;26.25;;;;;20.26;48.43;100801.03;146603;653;47918;-79
2021/09/14 02:40:37;;;;;;;;;28.00;26.25;;;;;19.93;47.60;100790.94;146604;569;46016;-84
2021/09/14 03:00:38;;;;;;;;;34.75;29.00;;;;;19.89;49.12;100828.59;146610;608;46010;-79
2021/09/14 03:03:12;;;;;;;;;31.00;25.50;;;;;19.79;49.13;100828.47;146603;595;47013;-77
2021/09/14 03:05:50;;;;;;;;;29.00;27.00;;;;;19.74;48.76;100830.13;146607;643;46020;-80
2021/09/14 03:08:33;;;;;;;;;26.75;24.50;;;;;19.68;49.15;100827.37;146606;581;45914;-81
2021/09/14 03:11:09;;;;;;;;;27.50;26.50;;;;;19.64;49.48;100830.84;146603;644;46021;-80
2021/09/14 03:13:44;;;;;;;;;33.25;31.50;;;;;19.45;49.50;100802.44;146606;622;46017;-81
2021/09/14 03:16:18;;;;;;;;;28.50;26.75;;;;;19.41;50.16;100808.50;146607;666;47010;-80
2021/09/14 03:18:52;;;;;;;;;32.00;25.50;;;;;19.32;50.44;100809.25;146603;564;46017;-80
2021/09/14 03:21:50;;;;;;;;;35.25;30.75;;;;;19.39;50.58;100832.16;146609;620;46010;-80
2021/09/14 03:24:36;;;;;;;;;30.50;27.00;;;;;19.31;50.11;100850.41;146605;653;46016;-80
2021/09/14 03:28:04;;;;;;;;;27.75;26.25;;;;;19.28;49.95;100850.37;146604;564;46021;-78
2021/09/14 03:34:51;;;;;;;;;33.00;28.50;;;;;19.20;50.46;100857.25;146606;673;46021;-89
2021/09/14 03:37:25;;;;;;;;;32.00;27.50;;;;;19.16;51.23;100858.06;146602;592;47912;-88
2021/09/14 03:39:59;;;;;;;;;29.25;26.50;;;;;19.06;52.01;100849.09;146603;714;46020;-89
2021/09/14 03:42:33;;;;;;;;;30.25;29.25;;;;;19.09;51.17;100864.91;146605;614;46016;-87
2021/09/14 03:45:49;;;;;;;;;33.50;31.00;;;;;19.09;50.61;100861.41;146608;591;46010;-90
2021/09/14 03:48:23;;;;;;;;;35.00;31.50;;;;;19.10;51.41;100857.94;146605;608;46017;-89
2021/09/14 03:50:57;;;;;;;;;30.00;29.75;;;;;19.13;51.43;100864.13;146605;602;46020;-91
2021/09/14 03:53:31;;;;;;;;;28.50;27.75;;;;;19.15;50.76;100866.78;146607;590;46012;-90
2021/09/14 03:56:05;;;;;;;;;26.00;24.75;;;;;19.11;50.77;100854.44;146604;613;47011;-89
2021/09/14 03:58:39;;;;;;;;;29.75;24.00;;;;;19.18;51.29;100872.09;146603;581;46021;-92
2021/09/14 04:01:18;;;;;;;;;30.50;27.25;;;;;19.16;51.18;100876.44;146608;671;46010;-93
2021/09/14 04:03:57;;;;;;;;;35.00;29.25;;;;;19.14;50.70;100876.41;146609;616;46012;-93
2021/09/14 04:09:40;;;;;;;;;31.25;29.00;;;;;19.22;50.55;100884.44;146602;592;47018;-81
2021/09/14 04:12:13;;;;;;;;;28.25;23.50;;;;;19.26;50.88;100872.25;146607;650;46022;-79
2021/09/14 04:14:47;;;;;;;;;38.00;30.75;;;;;19.29;50.30;100880.19;146604;593;46016;-80
2021/09/14 04:17:21;;;;;;;;;32.25;27.50;;;;;19.29;50.45;100880.19;146606;567;46021;-83
2021/09/14 04:19:55;;;;;;;;;28.50;28.00;;;;;19.31;50.00;100883.72;146602;642;47020;-81
2021/09/14 04:22:30;;;;;;;;;32.50;27.50;;;;;19.34;49.98;100879.38;146605;664;46020;-80
2021/09/14 04:25:04;;;;;;;;;31.75;28.50;;;;;19.36;49.84;100880.31;146602;580;47020;-78
2021/09/14 04:27:38;;;;;;;;;29.00;27.75;;;;;19.41;50.43;100883.03;146607;578;46031;-80
2021/09/14 04:30:12;;;;;;;;;34.00;28.50;;;;;19.43;50.16;100883.03;146603;642;46016;-78
2021/09/14 04:32:46;;;;;;;;;36.25;31.25;;;;;19.44;50.42;100880.47;146605;585;46012;-84
2021/09/14 04:35:20;;;;;;;;;32.00;30.00;;;;;19.41;50.30;100877.78;146604;634;47012;-82
2021/09/14 04:37:54;;;;;;;;;33.25;30.00;;;;;19.44;51.07;100890.06;146605;645;46020;-83
2021/09/14 04:40:28;;;;;;;;;37.50;31.00;;;;;19.41;50.61;100883.03;146602;564;46016;-81
2021/09/14 04:43:02;;;;;;;;;27.50;27.50;;;;;19.47;50.32;100888.41;146607;569;47012;-83
2021/09/14 04:45:36;;;;;;;;;32.75;31.00;;;;;19.34;50.91;100857.47;146603;594;47910;-83
2021/09/14 04:48:10;;;;;;;;;30.00;29.75;;;;;19.42;50.97;100865.50;146606;592;47014;-82
2021/09/14 04:50:44;;;;;;;;;35.00;30.00;;;;;19.53;50.67;100850.78;146604;587;46016;-80
2021/09/14 04:53:18;;;;;;;;;34.25;29.25;;;;;19.98;49.55;100863.81;146607;601;46010;-81
2021/09/14 04:55:52;;;;;;;;;35.25;29.50;;;;;20.68;49.02;100892.91;146605;578;46012;-80
2021/09/14 04:58:26;;;;;;;;;37.00;31.25;;;;;21.21;48.07;100897.94;146605;586;47008;-80
2021/09/14 05:01:00;;;;;;;;;33.25;29.50;;;;;21.67;46.53;100901.03;146604;590;46035;-80
2021/09/14 05:03:34;;;;;;;;;30.75;25.75;;;;;22.05;46.31;100900.44;146607;603;46020;-78
2021/09/14 05:06:08;;;;;;;;;31.75;29.25;;;;;22.37;45.61;100892.78;146604;574;47012;-79
2021/09/14 05:08:42;;;;;;;;;33.75;29.00;;;;;22.53;45.04;100877.00;146608;592;46015;-79
2021/09/14 05:11:16;;;;;;;;;34.25;31.00;;;;;22.87;44.44;100900.94;146603;664;47021;-78
2021/09/14 05:13:50;;;;;;;;;33.50;29.75;;;;;23.01;43.65;100905.41;146605;621;46020;-78
2021/09/14 05:16:24;;;;;;;;;33.50;30.00;;;;;23.08;43.94;100905.41;146605;626;46013;-78
2021/09/14 05:18:58;;;;;;;;;34.50;28.50;;;;;23.14;43.79;100913.38;146606;639;46020;-79
2021/09/14 05:21:32;;;;;;;;;32.50;29.50;;;;;23.23;43.45;100909.00;146604;637;46034;-80
2021/09/14 05:24:06;;;;;;;;;33.25;28.75;;;;;23.38;42.94;100916.06;146608;620;46010;-80
2021/09/14 05:26:40;;;;;;;;;31.25;30.00;;;;;23.52;43.32;100914.34;146603;573;46016;-79
2021/09/14 05:29:14;;;;;;;;;26.75;25.25;;;;;23.63;42.63;100903.75;146609;624;46032;-81
2021/09/14 05:31:48;;;;;;;;;25.00;22.75;;;;;23.74;41.97;100907.34;146604;594;46016;-81
2021/09/14 05:34:24;;;;;;;;;30.25;27.75;;;;;23.80;41.85;100910.84;146610;624;46010;-83
2021/09/14 05:36:58;;;;;;;;;31.75;30.00;;;;;23.77;42.00;100909.09;146605;626;46020;-82
2021/09/14 05:39:32;;;;;;;;;36.00;30.25;;;;;23.75;41.71;100918.81;146606;594;46021;-82
2021/09/14 05:42:09;;;;;;;;;38.00;32.00;;;;;23.69;41.93;100909.09;146604;565;47012;-78
2021/09/14 05:44:43;;;;;;;;;32.50;31.00;;;;;23.73;41.67;100907.31;146607;601;46010;-79
2021/09/14 05:47:17;;;;;;;;;35.75;30.00;;;;;23.69;41.88;100917.03;146604;576;46016;-78
2021/09/14 05:49:50;;;;;;;;;28.50;25.25;;;;;23.72;41.82;100913.50;146605;576;46020;-82
2021/09/14 05:52:24;;;;;;;;;32.25;28.50;;;;;23.78;41.92;100917.94;146602;658;47912;-83
2021/09/14 05:54:59;;;;;;;;;29.75;26.00;;;;;23.52;42.16;100871.13;146607;689;46010;-84
2021/09/14 05:57:35;;;;;;;;;30.50;29.00;;;;;23.87;42.04;100924.09;146606;570;46012;-81
2021/09/14 06:00:10;;;;;;;;;31.00;29.00;;;;;23.96;41.81;100929.41;146602;606;47020;-81
2021/09/14 06:02:45;;;;;;;;;35.25;29.25;;;;;24.08;42.44;100930.25;146602;571;47019;-81
2021/09/14 06:05:19;;;;;;;;;24.50;23.50;;;;;24.02;42.06;100890.53;146606;592;46020;-82
2021/09/14 06:07:53;;;;;;;;;31.00;28.25;;;;;24.31;41.44;100932.88;146604;610;46016;-81
2021/09/14 06:10:27;;;;;;;;;30.25;26.75;;;;;24.39;41.90;100928.44;146608;591;46020;-83
2021/09/14 06:13:01;;;;;;;;;30.25;27.25;;;;;24.42;41.04;100924.06;146605;570;46012;-81
2021/09/14 06:15:47;;;;;;;;;27.00;25.50;;;;;24.53;40.74;100925.81;146603;581;47008;-81
2021/09/14 06:18:22;;;;;;;;;29.50;26.25;;;;;24.62;40.49;100923.12;146604;617;47912;-81
2021/09/14 06:20:56;;;;;;;;;24.00;22.50;;;;;24.73;40.86;100931.91;146608;575;45022;-81
2021/09/14 06:23:30;;;;;;;;;27.25;26.00;;;;;24.87;40.84;100938.06;146604;622;46931;-81
2021/09/14 06:26:03;;;;;;;;;22.25;20.00;;;;;25.02;40.56;100923.84;146607;604;46020;-83
2021/09/14 06:28:37;;;;;;;;;34.25;29.75;;;;;25.12;39.98;100927.31;146606;595;46018;-82
2021/09/14 06:31:11;;;;;;;;;29.50;26.25;;;;;25.17;39.98;100935.28;146606;579;46021;-81
2021/09/14 06:33:45;;;;;;;;;35.50;29.50;;;;;25.25;39.79;100929.03;146600;647;47018;-80
2021/09/14 06:36:19;;;;;;;;;25.50;23.00;;;;;25.34;39.52;100938.72;146607;651;46020;-80
2021/09/14 06:38:53;;;;;;;;;32.75;29.00;;;;;25.39;39.54;100936.94;146605;609;46016;-78
2021/09/14 06:41:28;;;;;;;;;26.75;24.00;;;;;25.47;40.07;100945.72;146602;618;46020;-80
2021/09/14 06:44:04;;;;;;;;;27.50;26.00;;;;;25.53;39.11;100929.75;146602;581;46016;-89
2021/09/14 06:46:38;;;;;;;;;27.50;25.50;;;;;25.66;39.39;100942.94;146608;603;46020;-80
2021/09/14 06:49:12;;;;;;;;;30.00;29.00;;;;;25.77;38.95;100938.44;146604;600;46016;-79
2021/09/14 06:51:46;;;;;;;;;25.50;23.50;;;;;25.87;38.69;100941.94;146605;638;47015;-82
2021/09/14 06:54:19;;;;;;;;;26.25;23.00;;;;;25.95;38.60;100940.97;146604;584;46016;-80
2021/09/14 06:56:53;;;;;;;;;33.50;28.75;;;;;26.07;38.65;100936.44;146604;647;46020;-76
2021/09/14 06:59:27;;;;;;;;;31.50;29.00;;;;;26.18;38.52;100943.41;146602;653;47912;-78
2021/09/14 07:02:02;;;;;;;;;27.75;26.25;;;;;26.31;38.16;100948.63;146606;569;46020;-76
2021/09/14 07:04:36;;;;;;;;;30.00;26.00;;;;;26.31;37.64;100930.88;146602;743;47912;-74
2021/09/14 07:07:23;;;;;;;;;25.50;23.75;;;;;26.49;37.87;100949.34;146604;564;46010;-77
2021/09/14 07:09:59;;;;;;;;;29.25;28.00;;;;;26.57;37.35;100951.91;146601;585;47018;-76
2021/09/14 07:12:33;;;;;;;;;25.25;25.25;;;;;26.59;37.61;100950.09;146606;580;46020;-75
2021/09/14 07:15:07;;;;;;;;;29.75;27.25;;;;;26.62;37.53;100954.53;146605;571;46013;-74
2021/09/14 07:17:43;;;;;;;;;24.25;22.50;;;;;26.67;37.79;100950.03;146606;576;46020;-75
2021/09/14 07:20:17;;;;;;;;;26.50;23.75;;;;;26.75;37.60;100955.25;146605;564;46012;-76
2021/09/14 07:22:51;;;;;;;;;28.00;27.00;;;;;26.80;37.81;100951.66;146602;590;47014;-76
2021/09/14 07:25:25;;;;;;;;;25.25;23.50;;;;;27.00;37.26;100956.72;146605;579;47012;-74
2021/09/14 07:28:02;;;;;;;;;25.25;23.50;;;;;27.23;37.93;100952.88;146606;600;46020;-75
2021/09/14 07:30:37;;;;;;;;;27.25;25.50;;;;;27.48;36.41;100956.97;146606;660;46016;-76
2021/09/14 07:33:12;;;;;;;;;24.75;22.25;;;;;27.70;36.87;100960.19;146606;583;46010;-76
2021/09/14 07:35:47;;;;;;;;;19.25;18.50;;;;;27.99;35.04;100964.19;146605;565;46012;-76
2021/09/14 07:38:21;;;;;;;;;21.50;18.00;;;;;28.26;34.54;100954.84;146606;688;46020;-75
2021/09/14 07:40:55;;;;;;;;;20.00;19.00;;;;;28.54;34.34;100963.25;146605;565;46012;-76
2021/09/14 07:43:28;;;;;;;;;21.00;19.00;;;;;28.80;33.99;100968.06;146608;617;45022;-76
2021/09/14 07:46:03;;;;;;;;;17.50;16.50;;;;;29.08;34.19;100968.41;146603;586;46016;-76
2021/09/14 07:48:37;;;;;;;;;19.50;18.50;;;;;29.33;33.22;100966.06;146607;604;46010;-75
2021/09/14 07:51:14;;;;;;;;;22.25;20.75;;;;;29.59;33.43;100967.25;146602;591;47016;-76
2021/09/14 07:53:47;;;;;;;;;17.50;14.75;;;;;29.81;32.48;100971.19;146609;638;46010;-77
2021/09/14 07:56:21;;;;;;;;;21.00;16.00;;;;;29.98;29.60;100970.78;146604;647;46012;-75
2021/09/14 07:58:55;;;;;;;;;20.00;19.00;;;;;30.10;33.27;100970.47;146606;564;46021;-76
2021/09/14 08:01:29;;;;;;;;;20.25;19.75;;;;;30.25;32.16;100971.00;146605;613;46016;-76
2021/09/14 08:04:03;;;;;;;;;21.75;19.50;;;;;30.37;31.92;100973.38;146608;620;46020;-75
2021/09/14 08:06:37;;;;;;;;;24.00;20.50;;;;;30.44;32.12;100979.44;146607;606;46034;-76
2021/09/14 08:09:11;;;;;;;;;20.00;19.00;;;;;30.51;32.81;100976.56;146607;615;46020;-75
2021/09/14 08:11:45;;;;;;;;;18.50;18.50;;;;;30.64;31.76;100968.19;146601;671;47012;-76
2021/09/14 08:14:21;;;;;;;;;21.50;19.00;;;;;30.72;32.82;100967.06;146605;581;46021;-77
2021/09/14 08:16:55;;;;;;;;;24.50;22.25;;;;;30.85;31.84;100975.66;146604;582;47020;-76
2021/09/14 08:19:29;;;;;;;;;23.00;21.00;;;;;30.98;30.80;100965.47;146605;648;46020;-75
2021/09/14 08:22:07;;;;;;;;;25.75;21.50;;;;;31.05;31.45;100961.66;146606;763;47013;-76
2021/09/14 08:24:42;;;;;;;;;19.50;17.50;;;;;31.14;31.30;100965.87;146605;656;46020;-75
2021/09/14 08:27:17;;;;;;;;;20.75;20.25;;;;;31.22;30.40;100954.00;146603;617;46912;-77
2021/09/14 08:29:51;;;;;;;;;20.00;18.25;;;;;31.31;30.27;100958.22;146608;575;46010;-81
2021/09/14 08:32:25;;;;;;;;;20.00;18.50;;;;;31.43;31.37;100952.47;146604;577;46016;-81
2021/09/14 08:34:58;;;;;;;;;19.25;17.25;;;;;31.53;30.63;100947.72;146605;566;46020;-80
2021/09/14 08:37:32;;;;;;;;;20.75;20.00;;;;;31.61;30.14;100951.00;146604;588;46017;-83
2021/09/14 08:40:07;;;;;;;;;20.50;19.00;;;;;31.67;30.33;100953.50;146606;588;46020;-80
2021/09/14 08:42:42;;;;;;;;;19.25;18.50;;;;;31.74;29.21;100936.25;146602;619;46017;-81
2021/09/14 08:45:17;;;;;;;;;19.50;16.25;;;;;31.84;29.33;100938.63;146606;658;46010;-82
2021/09/14 08:47:52;;;;;;;;;18.75;17.25;;;;;31.95;31.52;100939.19;146604;594;46016;-85
2021/09/14 08:50:27;;;;;;;;;23.25;18.00;;;;;32.04;28.36;100946.06;146609;582;46011;-89
2021/09/14 08:53:01;;;;;;;;;19.00;17.00;;;;;32.13;28.66;100935.00;146606;579;46016;-75
2021/09/14 08:55:36;;;;;;;;;19.25;17.75;;;;;32.21;28.33;100930.22;146606;569;47010;-82
2021/09/14 08:58:14;;;;;;;;;18.50;18.50;;;;;32.28;27.69;100936.28;146605;609;46017;-82
2021/09/14 09:00:49;;;;;;;;;22.75;19.25;;;;;32.34;28.94;100941.44;146605;627;46020;-82
2021/09/14 09:03:30;;;;;;;;;20.00;18.50;;;;;32.45;29.86;100936.56;146602;572;46016;-82
2021/09/14 09:06:05;;;;;;;;;18.00;18.00;;;;;32.58;27.71;100942.37;146606;593;46021;-82
2021/09/14 09:08:43;;;;;;;;;23.50;22.00;;;;;32.70;26.50;100935.66;146604;596;46910;-81
2021/09/14 09:11:17;;;;;;;;;19.50;18.00;;;;;32.75;28.67;100934.56;146607;663;46020;-82
2021/09/14 09:13:53;;;;;;;;;20.25;17.50;;;;;32.83;28.22;100927.09;146605;591;46017;-81
2021/09/14 09:16:32;;;;;;;;;20.25;19.50;;;;;32.92;28.92;100925.88;146604;664;46012;-81
2021/09/14 09:19:08;;;;;;;;;18.50;16.50;;;;;33.02;26.97;100932.69;146605;586;47012;-81
2021/09/14 09:21:43;;;;;;;;;20.50;18.50;;;;;32.86;27.01;100893.88;146606;617;46020;-82
2021/09/14 09:24:18;;;;;;;;;18.50;17.00;;;;;33.08;28.59;100918.97;146604;564;47012;-81
2021/09/14 09:26:52;;;;;;;;;18.25;17.75;;;;;33.21;27.78;100930.16;146605;612;47010;-81
2021/09/14 09:29:31;;;;;;;;;20.75;18.75;;;;;33.28;27.67;100944.22;146605;563;46477;-81
2021/09/14 09:32:05;;;;;;;;;21.50;20.75;;;;;33.32;23.39;100930.56;146605;653;46020;-82
2021/09/14 09:34:39;;;;;;;;;18.50;17.25;;;;;33.35;27.00;100938.50;146605;601;46017;-80
2021/09/14 09:37:15;;;;;;;;;17.00;15.50;;;;;33.42;26.01;100936.44;146605;746;46020;-81
2021/09/14 09:39:49;;;;;;;;;19.75;18.25;;;;;33.50;26.08;100942.44;146603;613;46018;-81
2021/09/14 09:42:24;;;;;;;;;19.25;18.00;;;;;33.56;25.58;100944.00;146600;564;47011;-81
2021/09/14 09:45:00;;;;;;;;;20.00;17.25;;;;;33.63;26.28;100937.44;146603;573;46012;-81
2021/09/14 09:47:34;;;;;;;;;17.50;17.50;;;;;33.71;25.59;100938.00;146607;630;46021;-81
2021/09/14 09:50:08;;;;;;;;;21.50;21.25;;;;;33.81;25.40;100935.78;146604;606;46017;-81
2021/09/14 09:52:49;;;;;;;;;22.25;19.75;;;;;33.86;26.76;100938.28;146609;579;46010;-81
2021/09/14 09:55:24;;;;;;;;;22.00;18.25;;;;;33.91;26.31;100947.91;146604;589;46030;-81
2021/09/14 09:57:59;;;;;;;;;20.50;18.50;;;;;33.99;26.23;100937.72;146606;572;46021;-81
2021/09/14 10:00:33;;;;;;;;;22.25;19.50;;;;;34.07;24.29;100936.53;146602;734;46016;-81
2021/09/14 10:03:14;;;;;;;;;17.00;17.00;;;;;34.14;26.05;100927.22;146609;596;46010;-80
2021/09/14 10:05:54;;;;;;;;;20.00;17.75;;;;;34.23;25.54;100934.91;146605;655;46012;-80
2021/09/14 10:08:31;;;;;;;;;22.25;19.75;;;;;34.34;26.14;100929.94;146602;592;46020;-81
2021/09/14 10:11:05;;;;;;;;;16.75;16.25;;;;;34.40;23.72;100923.41;146605;671;47011;-79
2021/09/14 10:13:41;;;;;;;;;19.00;17.50;;;;;34.46;25.53;100934.78;146608;584;46021;-80
2021/09/14 10:16:27;;;;;;;;;23.00;21.25;;;;;34.56;27.12;100934.38;146604;680;46016;-80
2021/09/14 10:19:12;;;;;;;;;20.50;19.50;;;;;34.63;25.07;100931.34;146604;613;46021;-81
2021/09/14 10:21:48;;;;;;;;;20.25;19.00;;;;;34.60;22.77;100926.09;146607;619;46016;-81
2021/09/14 10:24:26;;;;;;;;;20.25;20.00;;;;;34.52;23.87;100933.62;146608;577;47010;-80
2021/09/14 10:27:11;;;;;;;;;22.00;20.25;;;;;34.41;25.44;100928.72;146605;579;46017;-80
2021/09/14 10:29:46;;;;;;;;;17.25;17.25;;;;;34.33;23.16;100921.91;146608;626;47010;-80
2021/09/14 10:32:20;;;;;;;;;21.00;18.50;;;;;34.31;26.49;100926.50;146607;650;46012;-81
2021/09/14 10:34:59;;;;;;;;;19.75;19.00;;;;;34.30;27.01;100931.03;146607;588;46020;-82
2021/09/14 10:37:36;;;;;;;;;20.75;18.50;;;;;34.37;25.63;100932.50;146604;604;46020;-80
2021/09/14 10:40:16;;;;;;;;;16.00;16.00;;;;;34.48;24.01;100927.47;146608;625;46020;-81
2021/09/14 10:42:52;;;;;;;;;22.25;19.00;;;;;34.61;25.05;100932.34;146606;613;46021;-81
2021/09/14 10:45:27;;;;;;;;;15.75;14.75;;;;;34.71;24.37;100931.00;146606;563;47010;-80
2021/09/14 10:48:01;;;;;;;;;18.00;16.75;;;;;34.77;25.25;100933.41;146602;592;47020;-81
2021/09/14 10:50:37;;;;;;;;;19.75;19.00;;;;;34.80;24.86;100927.88;146608;596;46020;-81
2021/09/14 10:53:11;;;;;;;;;15.75;14.50;;;;;34.84;24.13;100917.84;146603;672;46016;-81
2021/09/14 10:55:56;;;;;;;;;19.75;17.75;;;;;34.89;25.67;100927.44;146606;565;46918;-80
2021/09/14 10:58:32;;;;;;;;;17.75;17.75;;;;;34.96;25.34;100925.34;146604;627;46018;-81
2021/09/14 11:01:06;;;;;;;;;22.50;19.50;;;;;35.03;24.93;100923.22;146606;614;47010;-81
2021/09/14 11:03:40;;;;;;;;;19.50;19.00;;;;;35.12;23.87;100925.50;146604;564;46016;-80
2021/09/14 11:06:15;;;;;;;;;17.25;17.00;;;;;35.19;24.49;100926.94;146607;606;46031;-80
2021/09/14 11:08:50;;;;;;;;;19.25;18.25;;;;;35.20;23.65;100925.13;146602;707;46012;-82
2021/09/14 11:11:24;;;;;;;;;17.00;17.00;;;;;35.21;24.14;100921.50;146609;576;46011;-80
2021/09/14 11:13:59;;;;;;;;;18.75;18.75;;;;;35.21;24.10;100933.16;146603;616;47909;-80
2021/09/14 11:16:33;;;;;;;;;18.75;17.50;;;;;35.17;23.53;100920.75;146608;609;46020;-85
2021/09/14 11:19:07;;;;;;;;;18.75;17.00;;;;;35.13;22.55;100919.16;146602;615;47910;-82
2021/09/14 11:21:48;;;;;;;;;17.50;17.50;;;;;35.06;24.37;100912.31;146608;629;46010;-83
2021/09/14 11:24:24;;;;;;;;;18.50;16.75;;;;;34.97;24.08;100918.13;146605;577;46012;-82
2021/09/14 11:27:02;;;;;;;;;20.75;18.50;;;;;34.94;24.08;100913.75;146603;618;46021;-76
2021/09/14 11:29:37;;;;;;;;;18.25;18.00;;;;;34.95;24.43;100910.09;146604;611;47012;-76
2021/09/14 11:32:20;;;;;;;;;19.50;19.50;;;;;34.99;26.15;100914.41;146608;576;46010;-82
2021/09/14 11:34:54;;;;;;;;;19.75;17.25;;;;;34.86;24.17;100905.13;146602;612;46017;-75
2021/09/14 11:37:32;;;;;;;;;17.50;17.00;;;;;34.80;23.96;100906.31;146606;577;46020;-80
2021/09/14 11:40:07;;;;;;;;;18.50;18.00;;;;;34.69;24.27;100897.87;146602;582;46033;-84
2021/09/14 11:42:41;;;;;;;;;19.75;18.00;;;;;34.79;23.49;100892.91;146606;580;46020;-82
2021/09/14 11:45:15;;;;;;;;;18.50;16.50;;;;;34.81;24.53;100897.28;146604;599;47012;-83
2021/09/14 11:47:49;;;;;;;;;18.75;17.75;;;;;34.75;22.01;100892.19;146607;643;46021;-82
2021/09/14 11:50:35;;;;;;;;;21.00;18.00;;;;;34.62;26.01;100891.91;146602;618;47016;-80
2021/09/14 11:53:16;;;;;;;;;21.00;20.75;;;;;34.58;25.41;100884.00;146604;594;46014;-83
2021/09/14 11:55:53;;;;;;;;;18.00;17.50;;;;;34.48;23.38;100886.22;146606;619;46016;-73
2021/09/14 11:58:39;;;;;;;;;17.25;17.25;;;;;34.39;26.40;100889.34;146607;569;46010;-83
2021/09/14 12:01:13;;;;;;;;;19.00;17.00;;;;;34.28;28.16;100889.84;146605;565;46012;-90
2021/09/14 12:03:56;;;;;;;;;17.75;16.00;;;;;34.06;28.24;100900.69;146608;599;46020;-87
2021/09/14 12:06:37;;;;;;;;;16.75;15.75;;;;;33.67;28.29;100873.63;146602;577;46016;-85
2021/09/14 12:09:14;;;;;;;;;22.50;19.00;;;;;33.51;29.04;100889.53;146608;613;47010;-83
2021/09/14 12:11:48;;;;;;;;;17.50;16.50;;;;;33.27;26.91;100894.06;146606;625;46012;-82
2021/09/14 12:14:23;;;;;;;;;16.50;16.25;;;;;33.14;27.57;100890.13;146609;569;45020;-82
2021/09/14 12:17:03;;;;;;;;;17.25;16.00;;;;;33.02;27.88;100881.66;146605;617;46017;-83
2021/09/14 12:19:38;;;;;;;;;18.00;16.50;;;;;32.94;28.92;100877.47;146608;567;46010;-80
2021/09/14 12:22:12;;;;;;;;;17.50;16.50;;;;;32.84;29.19;100883.19;146604;667;46025;-80
2021/09/14 12:24:46;;;;;;;;;16.50;15.25;;;;;32.74;29.44;100878.22;146609;620;46030;-81
2021/09/14 12:27:20;;;;;;;;;18.00;16.75;;;;;32.58;29.86;100884.19;146605;589;46016;-80
2021/09/14 12:29:54;;;;;;;;;17.50;17.50;;;;;32.42;30.76;100877.59;146607;599;46020;-80
2021/09/14 12:32:28;;;;;;;;;19.25;16.00;;;;;32.27;31.26;100880.84;146603;578;47012;-80
2021/09/14 12:35:02;;;;;;;;;17.25;17.25;;;;;32.20;31.52;100869.47;146607;612;46012;-80
2021/09/14 12:37:36;;;;;;;;;15.00;15.00;;;;;32.20;32.09;100875.72;146605;591;46016;-80
2021/09/14 12:40:10;;;;;;;;;21.25;17.75;;;;;32.25;30.77;100869.31;146607;578;46014;-80
2021/09/14 12:42:44;;;;;;;;;18.00;18.00;;;;;32.25;29.44;100870.19;146602;572;47912;-81
2021/09/14 12:45:18;;;;;;;;;19.25;16.50;;;;;32.23;28.68;100869.34;146605;607;46020;-79
2021/09/14 12:47:52;;;;;;;;;18.25;14.25;;;;;32.17;29.86;100881.19;146602;580;47011;-80
2021/09/14 12:50:26;;;;;;;;;14.75;14.25;;;;;32.08;28.42;100876.16;146604;575;46020;-80
2021/09/14 12:53:03;;;;;;;;;16.75;15.75;;;;;32.01;29.28;100881.78;146602;582;46016;-80